Πλησιέστερες Αναφορές METAR

 

LGTS - Thessaloniki/Makedonia-Elev 7m
Distance from station: Ν 13km
Ενημερώθηκε: 22/05/2024 03:20
Αίθριος
Αίθριος
 Ανεμος από ΑΝΑ
Ανεμος: ΑΝΑ 9 km/h
Θερμοκρασία: 16°C
Σημείο Δρόσου: 15°C
Υγρασία: 94%
Βαρόμετρο: 1012 hPa
Συνθήκες: Αίθριος
Visibility: greater than 10 km
2024/05/22 00:20 LGTS 220020Z 12005KT CAVOK 16/15 Q1012 NOSIG
LGAV - Athens/Elef. Venizelos-Elev 94m
Distance from station: ΝΝΑ 312km
Ενημερώθηκε: 22/05/2024 03:50
Αίθριος
Αίθριος
 Ανεμος από varies
Ανεμος: varies 4 km/h
Θερμοκρασία: 17°C
Σημείο Δρόσου: 13°C
Υγρασία: 77%
Βαρόμετρο: 1011 hPa
Συνθήκες: Αίθριος
Visibility: greater than 10 km
2024/05/22 00:50 LGAV 220050Z VRB02KT CAVOK 17/13 Q1011 NOSIG
 
LGAL - Alexandroupolis-Elev 3m
Distance from station: Α 251km
Ενημερώθηκε: 22/05/2024 02:50
Αίθριος
Αίθριος
 Ανεμος από Α
Ανεμος: Α 9 km/h
Θερμοκρασία: 16°C
Σημείο Δρόσου: 10°C
Υγρασία: 68%
Βαρόμετρο: 1011 hPa
Συνθήκες: Αίθριος
Visibility: greater than 10 km
2024/05/21 23:50 LGAL 212350Z 10005KT CAVOK 16/10 Q1011
LGKV - Kavala/Crysoupolis-Elev 5m
Distance from station: ΑΒΑ 144km
Ενημερώθηκε: 21/05/2024 23:20
Μη Ενημερωμένο!
Few Clouds
Few Clouds
 Ανεμος από Α
Ανεμος: Α 7 km/h
Θερμοκρασία: 17°C
Σημείο Δρόσου: 14°C
Υγρασία: 83%
Βαρόμετρο: 1013 hPa
Clouds: Few Clouds
Visibility: 10 km
Cloud details: Few Clouds 762 m
2024/05/21 20:20 LGKV 212020Z 09004KT 9999 FEW025 17/14 Q1013
 
LGSK - Skiathos Island-Elev 15m
Distance from station: ΝΝΑ 168km
Ενημερώθηκε: 21/05/2024 21:50
Μη Ενημερωμένο!
Αίθριος
Αίθριος
 Ανεμος από calm
Ανεμος: Απνοια
Θερμοκρασία: 20°C
Σημείο Δρόσου: 15°C
Υγρασία: 73%
Βαρόμετρο: 1012 hPa
Συνθήκες: Αίθριος
Visibility: greater than 10 km
2024/05/21 18:50 LGSK 211850Z 00000KT CAVOK 20/15 Q1012
LGLM - Limnos Island-Elev 5m
Distance from station: ΑΝΑ 210km
Ενημερώθηκε: 22/05/2024 02:50
Αίθριος
Αίθριος
 Ανεμος από calm
Ανεμος: Απνοια
Θερμοκρασία: 16°C
Σημείο Δρόσου: 14°C
Υγρασία: 88%
Βαρόμετρο: 1011 hPa
Συνθήκες: Αίθριος
Visibility: greater than 10 km
2024/05/21 23:50 LGLM 212350Z 00000KT CAVOK 16/14 Q1011
 
LGMT - Mitilini Island-Elev 17m
Distance from station: ΑΝΑ 358km
Ενημερώθηκε: 22/05/2024 02:50
Αίθριος
Αίθριος
 Ανεμος από varies
Ανεμος: varies 4 km/h
Θερμοκρασία: 20°C
Σημείο Δρόσου: 12°C
Υγρασία: 60%
Βαρόμετρο: 1012 hPa
Συνθήκες: Αίθριος
Visibility: greater than 10 km
2024/05/21 23:50 LGMT 212350Z VRB02KT CAVOK 20/12 Q1012
LGSY - Skiros Island-Elev 15m
Distance from station: ΝΑ 227km
Ενημερώθηκε: 22/05/2024 02:50
Αίθριος
Αίθριος
 Ανεμος από calm
Ανεμος: Απνοια
Θερμοκρασία: 16°C
Σημείο Δρόσου: 11°C
Υγρασία: 72%
Βαρόμετρο: 1012 hPa
Συνθήκες: Αίθριος
Visibility: greater than 10 km
2024/05/21 23:50 LGSY 212350Z 00000KT CAVOK 16/11 Q1012 RMK FEW180 BLU
 
LGKZ - Kozani-Elev 628m
Distance from station: ΔΝΔ 102km
Ενημερώθηκε: 22/05/2024 03:20

 Ανεμος από Β
Ανεμος: Β 9 km/h
Θερμοκρασία: 14°C
Σημείο Δρόσου: 12°C
Υγρασία: 88%
Βαρόμετρο: 1014 hPa
2024/05/22 00:20 LGKZ 220020Z AUTO 01005KT //// // ////// 14/12 Q1014 RE//
LGIO - Ioannina-Elev 476m
Distance from station: ΔΝΔ 209km
Ενημερώθηκε: 22/05/2024 03:20

 Ανεμος από varies
Ανεμος: varies 2 km/h
Θερμοκρασία: 14°C
Σημείο Δρόσου: 13°C
Υγρασία: 94%
Βαρόμετρο: 1014 hPa
2024/05/22 00:20 LGIO 220020Z AUTO VRB01KT //// // ////// 14/13 Q1014 RE//
 
LGZA - Zakinthos-Elev 3m
Distance from station: ΝΝΔ 367km
Ενημερώθηκε: 21/05/2024 21:50
Μη Ενημερωμένο!
Μερικώς νεφελώδης
Μερικώς νεφελώδης
 Ανεμος από Ν
Ανεμος: Ν 22 km/h
Θερμοκρασία: 24°C
Σημείο Δρόσου: 16°C
Υγρασία: 61%
Βαρόμετρο: 1012 hPa
Clouds: Μερικώς νεφελώδης
Visibility: 8 km
Cloud details: Few Clouds 914 m
Μερικώς νεφελώδης 2438 m
2024/05/21 18:50 LGZA 211850Z 18012KT 8000 FEW030 SCT080 24/16 Q1012
LGKR - Corfu Island-Elev 2m
Distance from station: ΔΝΔ 282km
Ενημερώθηκε: 22/05/2024 03:50
Few Clouds
Few Clouds
 Ανεμος από calm
Ανεμος: Απνοια
Θερμοκρασία: 20°C
Σημείο Δρόσου: 18°C
Υγρασία: 88%
Βαρόμετρο: 1011 hPa
Clouds: Few Clouds
Visibility: 10 km
Cloud details: Few Clouds 549 m
2024/05/22 00:50 LGKR 220050Z 00000KT 9999 FEW018 20/18 Q1011 NOSIG
 
LGSO - Syros Island-Elev 72m
Distance from station: ΝΝΑ 397km
Ενημερώθηκε: 22/05/2024 03:20

 Ανεμος από ΝΔ
Ανεμος: ΝΔ 7 km/h
Θερμοκρασία: 21°C
Σημείο Δρόσου: 16°C
Υγρασία: 73%
Βαρόμετρο: 1010 hPa
2024/05/22 00:20 LGSO 220020Z AUTO 22004KT //// // ////// 21/16 Q1010 RE//
LGMK - Mikonos Island-Elev 123m
Distance from station: ΝΝΑ 412km
Ενημερώθηκε: 22/05/2024 02:50
Few Clouds
Few Clouds
 Ανεμος από calm
Ανεμος: Απνοια
Θερμοκρασία: 20°C
Σημείο Δρόσου: 15°C
Υγρασία: 73%
Βαρόμετρο: 1011 hPa
Clouds: Few Clouds
Visibility: 10 km
Cloud details: Few Clouds 914 m
2024/05/21 23:50 LGMK 212350Z 00000KT 9999 FEW030 20/15 Q1011
 
LGSR - Santorini Island-Elev 40m
Distance from station: ΝΝΑ 520km
Ενημερώθηκε: 22/05/2024 02:50
Few Clouds
Few Clouds
 Ανεμος από varies
Ανεμος: varies 6 km/h
Θερμοκρασία: 22°C
Σημείο Δρόσου: 16°C
Υγρασία: 69%
Βαρόμετρο: 1011 hPa
Clouds: Few Clouds
Visibility: 10 km
Cloud details: Few Clouds 914 m
2024/05/21 23:50 LGSR 212350Z VRB03KT 9999 FEW030 22/16 Q1011
LGKL - Kalamata-Elev 8m
Distance from station: Ν 405km
Ενημερώθηκε: 22/05/2024 03:20

 Ανεμος από varies
Ανεμος: varies 6 km/h
Θερμοκρασία: 17°C
Σημείο Δρόσου: 14°C
Υγρασία: 83%
Βαρόμετρο: 1011 hPa
2024/05/22 00:20 LGKL 220020Z AUTO VRB03KT //// // ////// 17/14 Q1011 RE//
 
LGIR - Iraklion/Crete-Elev 5m
Distance from station: ΝΝΑ 622km
Ενημερώθηκε: 22/05/2024 03:50
Few Clouds
Few Clouds
 Ανεμος από Ν
Ανεμος: Ν 15 km/h
Θερμοκρασία: 24°C
Σημείο Δρόσου: 12°C
Υγρασία: 47%
Βαρόμετρο: 1011 hPa
Clouds: Few Clouds
Visibility: 10 km
Cloud details: Few Clouds 2438 m
2024/05/22 00:50 LGIR 220050Z 18008KT 9999 FEW080 24/12 Q1011 NOSIG
LGRP - Rhodes-Elev 5m
Distance from station: ΝΑ 649km
Ενημερώθηκε: 22/05/2024 03:50
Αίθριος
Αίθριος
 Ανεμος από ΔΝΔ
Ανεμος: ΔΝΔ 17 km/h
Θερμοκρασία: 22°C
Σημείο Δρόσου: 19°C
Υγρασία: 83%
Βαρόμετρο: 1010 hPa
Συνθήκες: Αίθριος
Visibility: greater than 10 km
2024/05/22 00:50 LGRP 220050Z 24009KT CAVOK 22/19 Q1010 NOSIG
 
LWOH - Ohrid/FYROM-Elev 761m
Distance from station: ΔΒΔ 188km
Ενημερώθηκε: 21/05/2024 21:50
Μη Ενημερωμένο!
Few Clouds
Few Clouds
 Ανεμος από ΝΔ
Ανεμος: ΝΔ 11 km/h
Θερμοκρασία: 21°C
Σημείο Δρόσου: 15°C
Υγρασία: 69%
Βαρόμετρο: 1012 hPa
Clouds: Few Clouds
Visibility: 10 km
Cloud details: Few Clouds 1524 m
2024/05/21 18:50 LWOH 211850Z 23006KT 9999 FEW050 21/15 Q1012
LBSF - Sofia/Bulgaria-Elev 595m
Distance from station: Β 227km
Ενημερώθηκε: 22/05/2024 03:30
Αίθριος
Αίθριος
 Ανεμος από ΑΝΑ
Ανεμος: ΑΝΑ 17 km/h
Θερμοκρασία: 14°C
Σημείο Δρόσου: 11°C
Υγρασία: 82%
Βαρόμετρο: 1013 hPa
Clouds: Αίθριος
Visibility: 10 km
2024/05/22 00:30 LBSF 220030Z AUTO 12009KT 9999 NCD 14/11 Q1013 NOSIG
Σημερινά ρεκόρ Μετεωρολογικού Σταθμού
Δεν έχει σημειωθεί νέο ρεκόρ μέχρι τις 03:54 σήμερα - 22/5/2024